Time;durP1;ratioP1;P1;durP2;ratioP2;P2;SDS_P1;SDS_P2;PMS_P1;PMS_P2;Temp;Humidity;BMP_temperature;BMP_pressure;BME280_temperature;BME280_humidity;BME280_pressure;Samples;Min_cycle;Max_cycle;Signal;HPM_P1;HPM_P2
2022/10/12 00:02:23;;;;;;;8.30;4.83;;;;;;;;;;5074321;27;83850;-55
2022/10/12 00:04:52;;;;;;;6.60;3.80;;;;;;;;;;5085171;27;81809;-55
2022/10/12 00:07:20;;;;;;;7.57;4.73;;;;;;;;;;5075525;27;82551;-56
2022/10/12 00:09:48;;;;;;;6.37;3.80;;;;;;;;;;5052602;27;83735;-56
2022/10/12 00:12:17;;;;;;;6.07;3.97;;;;;;;;;;5050406;27;84032;-55
2022/10/12 00:14:46;;;;;;;4.90;3.43;;;;;;;;;;5058471;27;82874;-55
2022/10/12 00:17:14;;;;;;;9.67;4.17;;;;;;;;;;5056405;27;83845;-56
2022/10/12 00:19:43;;;;;;;6.17;4.23;;;;;;;;;;5066012;27;83723;-56
2022/10/12 00:22:11;;;;;;;8.33;4.17;;;;;;;;;;5062245;27;82663;-55
2022/10/12 00:24:39;;;;;;;9.87;4.80;;;;;;;;;;5058043;27;81856;-55
2022/10/12 00:27:10;;;;;;;7.90;4.33;;;;;;;;;;5063879;27;83813;-55
2022/10/12 00:29:38;;;;;;;9.80;4.27;;;;;;;;;;5063373;27;82854;-55
2022/10/12 00:32:08;;;;;;;8.17;4.43;;;;;;;;;;5064858;27;83612;-55
2022/10/12 00:34:36;;;;;;;8.40;4.53;;;;;;;;;;5076079;27;82896;-55
2022/10/12 00:37:04;;;;;;;9.73;4.10;;;;;;;;;;5060905;27;83678;-56
2022/10/12 00:39:33;;;;;;;9.70;5.33;;;;;;;;;;5063246;27;83238;-55
2022/10/12 00:42:01;;;;;;;8.90;5.17;;;;;;;;;;5062390;27;82559;-55
2022/10/12 00:44:39;;;;;;;10.47;4.70;;;;;;;;;;5067247;27;81921;-56
2022/10/12 00:47:10;;;;;;;8.43;4.10;;;;;;;;;;5062958;27;81867;-55
2022/10/12 00:49:38;;;;;;;10.43;4.47;;;;;;;;;;5052900;27;82715;-55
2022/10/12 00:52:07;;;;;;;7.10;4.03;;;;;;;;;;5061470;27;82479;-55
2022/10/12 00:54:37;;;;;;;8.13;5.37;;;;;;;;;;5074850;27;81862;-56
2022/10/12 00:57:05;;;;;;;6.07;3.77;;;;;;;;;;5051241;27;81961;-55
2022/10/12 00:59:34;;;;;;;7.77;5.17;;;;;;;;;;5067283;27;85113;-55
2022/10/12 01:02:03;;;;;;;7.30;4.30;;;;;;;;;;5070151;27;84575;-55
2022/10/12 01:04:33;;;;;;;7.47;4.50;;;;;;;;;;5064633;27;81820;-55
2022/10/12 01:07:01;;;;;;;7.13;4.80;;;;;;;;;;5075206;27;83491;-56
2022/10/12 01:09:29;;;;;;;8.80;4.03;;;;;;;;;;5060147;27;83303;-56
2022/10/12 01:11:57;;;;;;;6.37;4.13;;;;;;;;;;5062175;27;82816;-55
2022/10/12 01:14:26;;;;;;;9.43;4.53;;;;;;;;;;5056101;27;82119;-55
2022/10/12 01:16:54;;;;;;;6.33;4.10;;;;;;;;;;5065070;27;83330;-56
2022/10/12 01:19:30;;;;;;;10.23;4.70;;;;;;;;;;5055260;27;83800;-56
2022/10/12 01:22:01;;;;;;;6.43;4.17;;;;;;;;;;5049896;27;83620;-55
2022/10/12 01:24:35;;;;;;;11.80;4.60;;;;;;;;;;5058562;27;83173;-56
2022/10/12 01:27:11;;;;;;;9.87;4.50;;;;;;;;;;5067038;27;82794;-56
2022/10/12 01:29:58;;;;;;;10.60;4.53;;;;;;;;;;5064573;27;83688;-56
2022/10/12 01:32:29;;;;;;;5.67;3.90;;;;;;;;;;5043972;27;81915;-55
2022/10/12 01:34:58;;;;;;;7.53;4.47;;;;;;;;;;5057429;27;81761;-55
2022/10/12 01:37:29;;;;;;;10.27;4.13;;;;;;;;;;5058414;27;83669;-56
2022/10/12 01:39:57;;;;;;;7.70;4.70;;;;;;;;;;5060935;27;83045;-55
2022/10/12 01:42:27;;;;;;;7.83;3.90;;;;;;;;;;5076256;27;83381;-55
2022/10/12 01:45:02;;;;;;;8.80;4.80;;;;;;;;;;5061586;27;81807;-56
2022/10/12 01:47:31;;;;;;;7.53;3.50;;;;;;;;;;5060926;27;82797;-56
2022/10/12 01:50:00;;;;;;;5.03;3.20;;;;;;;;;;5057593;27;84828;-56
2022/10/12 01:52:28;;;;;;;5.17;3.23;;;;;;;;;;5071027;27;83788;-55
2022/10/12 01:55:06;;;;;;;5.87;3.80;;;;;;;;;;5064089;27;81955;-56
2022/10/12 01:57:36;;;;;;;4.70;3.40;;;;;;;;;;5081719;27;83724;-56
2022/10/12 02:00:06;;;;;;;5.97;3.87;;;;;;;;;;5065541;27;84270;-57
2022/10/12 02:02:37;;;;;;;3.67;2.80;;;;;;;;;;5062002;27;83598;-56
2022/10/12 02:05:06;;;;;;;7.37;3.37;;;;;;;;;;5064029;27;81933;-56
2022/10/12 02:07:37;;;;;;;4.47;2.87;;;;;;;;;;5050443;27;82987;-57
2022/10/12 02:10:06;;;;;;;8.70;3.40;;;;;;;;;;5046470;27;84067;-57
2022/10/12 02:12:36;;;;;;;4.60;2.67;;;;;;;;;;5064468;27;83239;-57
2022/10/12 02:15:04;;;;;;;6.03;3.40;;;;;;;;;;5052702;27;82945;-57
2022/10/12 02:17:32;;;;;;;7.80;3.70;;;;;;;;;;5066071;27;82814;-56
2022/10/12 02:20:02;;;;;;;4.03;2.77;;;;;;;;;;5065830;27;82673;-56
2022/10/12 02:22:33;;;;;;;4.53;2.73;;;;;;;;;;5073627;27;82944;-56
2022/10/12 02:25:01;;;;;;;4.83;2.60;;;;;;;;;;5061603;27;82001;-57
2022/10/12 02:27:30;;;;;;;2.37;2.07;;;;;;;;;;5055012;27;82588;-56
2022/10/12 02:29:58;;;;;;;4.97;3.07;;;;;;;;;;5051845;27;82934;-56
2022/10/12 02:32:28;;;;;;;3.10;2.10;;;;;;;;;;5070071;27;82667;-56
2022/10/12 02:34:57;;;;;;;4.03;2.67;;;;;;;;;;5054668;27;82054;-55
2022/10/12 02:37:31;;;;;;;6.27;2.97;;;;;;;;;;5057381;27;83538;-56
2022/10/12 02:40:00;;;;;;;6.70;2.87;;;;;;;;;;5070575;27;84861;-56
2022/10/12 02:42:30;;;;;;;5.50;2.50;;;;;;;;;;5048558;27;84693;-56
2022/10/12 02:45:13;;;;;;;5.37;2.40;;;;;;;;;;5050643;27;82439;-56
2022/10/12 02:47:42;;;;;;;2.83;2.03;;;;;;;;;;5070126;27;82478;-57
2022/10/12 02:50:10;;;;;;;4.63;2.10;;;;;;;;;;5067785;27;82968;-56
2022/10/12 02:52:40;;;;;;;2.53;1.77;;;;;;;;;;5048703;27;82557;-55
2022/10/12 02:55:08;;;;;;;4.57;2.50;;;;;;;;;;5051138;27;82066;-56
2022/10/12 02:57:36;;;;;;;4.80;2.00;;;;;;;;;;5068572;27;81585;-56
2022/10/12 03:00:05;;;;;;;1.53;1.43;;;;;;;;;;5047028;27;82966;-55
2022/10/12 03:02:34;;;;;;;4.53;2.97;;;;;;;;;;5066678;27;83853;-56
2022/10/12 03:05:02;;;;;;;6.07;2.07;;;;;;;;;;5057961;27;82945;-56
2022/10/12 03:07:30;;;;;;;3.53;1.80;;;;;;;;;;5068541;27;82730;-56
2022/10/12 03:10:00;;;;;;;4.00;1.83;;;;;;;;;;5066008;27;83043;-56
2022/10/12 03:12:28;;;;;;;3.10;1.43;;;;;;;;;;5068553;27;82509;-56
2022/10/12 03:14:56;;;;;;;2.43;1.60;;;;;;;;;;5062766;27;81998;-56
2022/10/12 03:17:25;;;;;;;3.53;1.57;;;;;;;;;;5060364;27;83929;-56
2022/10/12 03:19:53;;;;;;;3.03;1.70;;;;;;;;;;5059378;27;83003;-55
2022/10/12 03:22:21;;;;;;;3.90;1.73;;;;;;;;;;5062801;27;82302;-56
2022/10/12 03:24:49;;;;;;;2.50;1.50;;;;;;;;;;5070574;27;82009;-56
2022/10/12 03:27:19;;;;;;;3.33;1.80;;;;;;;;;;5065932;27;82568;-56
2022/10/12 03:29:47;;;;;;;2.67;1.57;;;;;;;;;;5081649;27;83819;-56
2022/10/12 03:32:15;;;;;;;1.97;1.57;;;;;;;;;;5062858;27;84431;-56
2022/10/12 03:34:44;;;;;;;2.70;2.03;;;;;;;;;;5065125;27;83592;-56
2022/10/12 03:37:12;;;;;;;3.00;2.10;;;;;;;;;;5071482;27;81860;-55
2022/10/12 03:39:40;;;;;;;2.83;1.67;;;;;;;;;;5058941;27;83862;-55
2022/10/12 03:42:09;;;;;;;5.33;1.90;;;;;;;;;;5066827;27;83059;-56
2022/10/12 03:44:39;;;;;;;3.10;1.80;;;;;;;;;;5065748;27;81879;-56
2022/10/12 03:47:07;;;;;;;6.70;2.50;;;;;;;;;;5054159;27;82970;-56
2022/10/12 03:49:35;;;;;;;3.17;2.37;;;;;;;;;;5050123;27;82801;-57
2022/10/12 03:52:03;;;;;;;3.70;2.17;;;;;;;;;;5053218;27;82846;-56
2022/10/12 03:54:32;;;;;;;3.43;2.30;;;;;;;;;;5067259;27;83371;-56
2022/10/12 03:57:00;;;;;;;4.93;2.80;;;;;;;;;;5082591;27;83620;-56
2022/10/12 03:59:28;;;;;;;6.87;3.93;;;;;;;;;;5065929;27;82832;-56
2022/10/12 04:01:58;;;;;;;8.33;3.63;;;;;;;;;;5084959;27;83823;-55
2022/10/12 04:04:26;;;;;;;7.77;3.33;;;;;;;;;;5079296;27;82280;-56
2022/10/12 04:06:54;;;;;;;9.63;4.80;;;;;;;;;;5079266;27;82589;-56
2022/10/12 04:09:23;;;;;;;14.13;6.17;;;;;;;;;;5068498;27;82120;-56
2022/10/12 04:11:51;;;;;;;19.60;7.60;;;;;;;;;;5066713;27;83555;-56
2022/10/12 04:14:19;;;;;;;18.30;8.20;;;;;;;;;;5070404;27;81860;-56
2022/10/12 04:16:47;;;;;;;23.27;9.93;;;;;;;;;;5080699;27;82726;-55
2022/10/12 04:19:17;;;;;;;25.80;11.50;;;;;;;;;;5078792;27;85104;-55
2022/10/12 04:21:45;;;;;;;23.87;11.23;;;;;;;;;;5078094;27;82568;-56
2022/10/12 04:24:13;;;;;;;26.00;11.93;;;;;;;;;;5067237;27;83770;-56
2022/10/12 04:26:42;;;;;;;38.93;12.37;;;;;;;;;;5061271;27;83572;-55
2022/10/12 04:29:11;;;;;;;32.93;13.90;;;;;;;;;;5061234;27;83667;-56
2022/10/12 04:31:40;;;;;;;31.73;11.47;;;;;;;;;;5065936;27;83525;-56
2022/10/12 04:34:09;;;;;;;36.57;11.70;;;;;;;;;;5066307;27;83912;-56
2022/10/12 04:36:39;;;;;;;30.00;12.63;;;;;;;;;;5064637;27;82795;-56
2022/10/12 04:39:07;;;;;;;36.03;13.23;;;;;;;;;;5061873;27;83071;-56
2022/10/12 04:41:35;;;;;;;31.43;12.63;;;;;;;;;;5062902;27;84630;-56
2022/10/12 04:44:04;;;;;;;33.57;12.57;;;;;;;;;;5062127;27;83728;-56
2022/10/12 04:46:32;;;;;;;35.03;12.30;;;;;;;;;;5061652;27;83604;-56
2022/10/12 04:49:00;;;;;;;30.90;11.73;;;;;;;;;;5060339;27;83168;-56
2022/10/12 04:51:28;;;;;;;24.60;11.13;;;;;;;;;;5060249;27;84793;-56
2022/10/12 04:53:58;;;;;;;31.90;15.13;;;;;;;;;;5062917;27;82936;-56
2022/10/12 04:56:26;;;;;;;36.90;13.37;;;;;;;;;;5059911;27;83038;-56
2022/10/12 04:58:55;;;;;;;31.53;13.33;;;;;;;;;;5059811;27;84599;-56
2022/10/12 05:01:23;;;;;;;45.07;13.67;;;;;;;;;;5063392;27;82820;-56
2022/10/12 05:03:51;;;;;;;37.23;12.80;;;;;;;;;;5055956;27;83071;-56
2022/10/12 05:06:19;;;;;;;27.77;12.50;;;;;;;;;;5060636;27;83440;-56
2022/10/12 05:08:48;;;;;;;32.93;13.43;;;;;;;;;;5062576;27;82921;-56
2022/10/12 05:11:17;;;;;;;37.00;13.77;;;;;;;;;;5072128;27;82769;-56
2022/10/12 05:13:46;;;;;;;37.73;15.10;;;;;;;;;;5067883;27;83192;-56
2022/10/12 05:16:14;;;;;;;37.60;13.90;;;;;;;;;;5067769;27;82756;-56
2022/10/12 05:18:42;;;;;;;33.93;13.00;;;;;;;;;;5063073;27;82856;-56
2022/10/12 05:21:10;;;;;;;28.53;11.43;;;;;;;;;;5075118;27;83680;-56
2022/10/12 05:23:39;;;;;;;30.83;13.17;;;;;;;;;;5067767;27;82890;-56
2022/10/12 05:26:07;;;;;;;34.27;13.37;;;;;;;;;;5068170;27;83635;-56
2022/10/12 05:28:36;;;;;;;32.33;13.97;;;;;;;;;;5051140;27;83942;-56
2022/10/12 05:31:08;;;;;;;34.60;11.57;;;;;;;;;;5053017;27;83775;-56
2022/10/12 05:33:36;;;;;;;29.70;13.60;;;;;;;;;;5044721;27;82830;-56
2022/10/12 05:36:05;;;;;;;28.60;12.87;;;;;;;;;;5051542;27;82688;-56
2022/10/12 05:38:33;;;;;;;24.30;12.23;;;;;;;;;;5056049;27;82792;-55
2022/10/12 05:41:02;;;;;;;32.53;11.93;;;;;;;;;;5063717;27;83576;-55
2022/10/12 05:43:30;;;;;;;23.90;11.60;;;;;;;;;;5060688;27;83864;-60
2022/10/12 05:46:00;;;;;;;25.03;10.90;;;;;;;;;;5064334;27;82742;-54
2022/10/12 05:48:28;;;;;;;22.73;10.17;;;;;;;;;;5065325;27;82772;-55
2022/10/12 05:50:56;;;;;;;24.90;9.90;;;;;;;;;;5071914;27;85271;-54
2022/10/12 05:53:24;;;;;;;23.23;10.70;;;;;;;;;;5061412;27;83009;-53
2022/10/12 05:55:53;;;;;;;17.87;8.73;;;;;;;;;;5066261;27;83752;-54
2022/10/12 05:58:22;;;;;;;18.63;7.90;;;;;;;;;;5072054;27;83934;-54
2022/10/12 06:00:50;;;;;;;14.80;9.07;;;;;;;;;;5063321;27;83661;-53
2022/10/12 06:03:20;;;;;;;16.20;7.87;;;;;;;;;;5060125;27;82258;-53
2022/10/12 06:05:53;;;;;;;20.97;9.30;;;;;;;;;;5071480;27;82578;-55
2022/10/12 06:08:21;;;;;;;17.23;7.80;;;;;;;;;;5061500;27;82705;-53
2022/10/12 06:10:50;;;;;;;16.17;7.80;;;;;;;;;;5073168;27;82749;-54
2022/10/12 06:13:18;;;;;;;13.33;6.83;;;;;;;;;;5063685;27;82343;-55
2022/10/12 06:15:47;;;;;;;13.87;6.37;;;;;;;;;;5066805;27;82602;-54
2022/10/12 06:18:15;;;;;;;10.77;6.07;;;;;;;;;;5057345;27;81983;-54
2022/10/12 06:20:48;;;;;;;13.30;5.87;;;;;;;;;;5062141;27;81987;-54
2022/10/12 06:23:16;;;;;;;13.33;5.27;;;;;;;;;;5064967;27;82713;-55
2022/10/12 06:25:46;;;;;;;13.27;6.30;;;;;;;;;;5052118;27;83639;-55
2022/10/12 06:28:14;;;;;;;9.00;6.00;;;;;;;;;;5056274;27;82556;-55
2022/10/12 06:30:44;;;;;;;13.20;6.33;;;;;;;;;;5048370;27;82152;-54
2022/10/12 06:33:12;;;;;;;14.47;5.50;;;;;;;;;;5047255;27;83530;-55
2022/10/12 06:35:40;;;;;;;8.47;4.83;;;;;;;;;;5052606;27;83069;-55
2022/10/12 06:38:10;;;;;;;15.37;5.23;;;;;;;;;;5056506;27;82968;-55
2022/10/12 06:40:38;;;;;;;10.87;5.37;;;;;;;;;;5062826;27;83545;-55
2022/10/12 06:43:06;;;;;;;13.67;4.60;;;;;;;;;;5061910;27;81993;-55
2022/10/12 06:45:35;;;;;;;9.17;4.30;;;;;;;;;;5055239;27;84205;-55
2022/10/12 06:48:03;;;;;;;9.07;4.63;;;;;;;;;;5053387;27;84051;-54
2022/10/12 06:50:31;;;;;;;6.83;3.80;;;;;;;;;;5050325;27;84814;-54
2022/10/12 06:53:00;;;;;;;8.23;4.00;;;;;;;;;;5057662;27;82475;-54
2022/10/12 06:55:29;;;;;;;10.70;4.90;;;;;;;;;;5063016;27;82471;-54
2022/10/12 06:57:58;;;;;;;7.97;3.47;;;;;;;;;;5055217;27;83879;-54
2022/10/12 07:00:26;;;;;;;6.73;3.67;;;;;;;;;;5043255;27;82587;-56
2022/10/12 07:02:54;;;;;;;8.13;4.43;;;;;;;;;;5047570;27;82031;-55
2022/10/12 07:05:23;;;;;;;8.30;4.07;;;;;;;;;;5064209;27;84019;-55
2022/10/12 07:07:52;;;;;;;6.57;3.70;;;;;;;;;;5056288;27;83465;-55
2022/10/12 07:10:20;;;;;;;7.63;3.70;;;;;;;;;;5054286;27;82757;-56
2022/10/12 07:12:50;;;;;;;6.70;3.43;;;;;;;;;;5064339;27;82948;-56
2022/10/12 07:15:18;;;;;;;9.00;3.30;;;;;;;;;;5063532;27;82585;-56
2022/10/12 07:17:48;;;;;;;4.83;3.00;;;;;;;;;;5061605;27;82842;-56
2022/10/12 07:20:17;;;;;;;6.03;3.03;;;;;;;;;;5048037;27;81842;-56
2022/10/12 07:22:45;;;;;;;5.30;2.30;;;;;;;;;;5042662;27;81901;-56
2022/10/12 07:25:15;;;;;;;7.73;3.63;;;;;;;;;;5041774;27;82778;-56
2022/10/12 07:27:43;;;;;;;5.07;2.83;;;;;;;;;;5042351;27;81981;-56
2022/10/12 07:30:14;;;;;;;8.70;2.80;;;;;;;;;;5043689;27;83783;-56
2022/10/12 07:32:43;;;;;;;4.63;2.80;;;;;;;;;;5046846;27;81891;-56
2022/10/12 07:35:11;;;;;;;7.43;3.00;;;;;;;;;;5047105;27;82718;-56
2022/10/12 07:37:39;;;;;;;7.17;3.03;;;;;;;;;;5046715;27;83834;-56
2022/10/12 07:40:09;;;;;;;4.57;2.63;;;;;;;;;;5047114;27;83576;-56
2022/10/12 07:42:37;;;;;;;4.33;2.57;;;;;;;;;;5046563;27;81900;-56
2022/10/12 07:45:27;;;;;;;2.30;2.00;;;;;;;;;;5046285;27;82612;-56
2022/10/12 07:47:55;;;;;;;4.77;1.87;;;;;;;;;;5048008;27;83000;-55
2022/10/12 07:50:26;;;;;;;3.33;2.20;;;;;;;;;;5066984;27;82175;-56
2022/10/12 07:52:54;;;;;;;2.93;2.37;;;;;;;;;;5067700;27;83585;-56
2022/10/12 07:55:23;;;;;;;4.17;2.67;;;;;;;;;;5067409;27;82418;-56
2022/10/12 07:57:51;;;;;;;4.47;2.47;;;;;;;;;;5066823;27;82950;-56
2022/10/12 08:00:21;;;;;;;4.10;2.03;;;;;;;;;;5066560;27;82676;-56
2022/10/12 08:02:50;;;;;;;6.60;2.17;;;;;;;;;;5066273;27;82903;-56
2022/10/12 08:05:20;;;;;;;6.20;2.50;;;;;;;;;;5066703;27;81836;-56
2022/10/12 08:07:48;;;;;;;3.43;1.93;;;;;;;;;;5066572;27;82238;-56
2022/10/12 08:10:16;;;;;;;3.80;2.03;;;;;;;;;;5066235;27;81899;-54
2022/10/12 08:12:45;;;;;;;2.70;1.57;;;;;;;;;;5066027;27;82877;-54
2022/10/12 08:15:19;;;;;;;2.90;2.10;;;;;;;;;;5066066;27;82790;-54
2022/10/12 08:17:47;;;;;;;3.13;1.40;;;;;;;;;;5066617;27;82908;-54
2022/10/12 08:20:17;;;;;;;3.87;1.90;;;;;;;;;;5066431;27;82525;-55
2022/10/12 08:22:45;;;;;;;3.37;1.97;;;;;;;;;;5066379;27;82012;-54
2022/10/12 08:25:14;;;;;;;2.87;1.80;;;;;;;;;;5066249;27;82536;-54
2022/10/12 08:27:42;;;;;;;4.50;1.83;;;;;;;;;;5064896;27;82979;-54
2022/10/12 08:30:11;;;;;;;3.77;2.60;;;;;;;;;;5065954;27;83530;-55
2022/10/12 08:32:40;;;;;;;4.70;1.50;;;;;;;;;;5066847;27;81787;-55
2022/10/12 08:35:10;;;;;;;14.13;1.93;;;;;;;;;;5066432;27;82633;-54
2022/10/12 08:37:40;;;;;;;4.73;1.87;;;;;;;;;;5066052;27;84000;-54
2022/10/12 08:40:10;;;;;;;4.27;2.13;;;;;;;;;;5065412;27;82706;-54
2022/10/12 08:42:41;;;;;;;4.03;1.73;;;;;;;;;;5065649;27;82040;-55
2022/10/12 08:45:33;;;;;;;3.77;1.73;;;;;;;;;;5065786;27;83963;-55
2022/10/12 08:48:02;;;;;;;3.37;1.67;;;;;;;;;;5050570;27;82784;-55
2022/10/12 08:50:32;;;;;;;2.93;2.40;;;;;;;;;;5045983;28;82587;-56
2022/10/12 08:53:02;;;;;;;3.83;2.07;;;;;;;;;;5045435;27;82788;-54
2022/10/12 08:55:35;;;;;;;5.13;2.43;;;;;;;;;;5045508;28;84393;-54
2022/10/12 08:58:03;;;;;;;4.47;2.07;;;;;;;;;;5044987;27;82949;-54
2022/10/12 09:00:31;;;;;;;3.60;2.33;;;;;;;;;;5045120;27;83564;-55
2022/10/12 09:03:08;;;;;;;4.57;1.73;;;;;;;;;;5045869;28;81888;-55
2022/10/12 09:05:38;;;;;;;3.77;1.63;;;;;;;;;;5045588;27;82870;-54
2022/10/12 09:08:08;;;;;;;2.40;2.20;;;;;;;;;;5045291;27;83836;-54
2022/10/12 09:10:40;;;;;;;3.60;2.43;;;;;;;;;;5045585;27;83720;-54
2022/10/12 09:13:10;;;;;;;4.43;2.13;;;;;;;;;;5045144;27;81806;-55
2022/10/12 09:15:39;;;;;;;3.00;1.93;;;;;;;;;;5045125;27;81967;-55
2022/10/12 09:18:12;;;;;;;5.43;2.30;;;;;;;;;;5044867;28;85123;-55
2022/10/12 09:20:41;;;;;;;4.07;2.40;;;;;;;;;;5065442;27;83553;-55
2022/10/12 09:23:23;;;;;;;2.40;1.93;;;;;;;;;;5065714;27;82482;-55
2022/10/12 09:25:53;;;;;;;3.37;2.10;;;;;;;;;;5065345;27;83852;-55
2022/10/12 09:28:22;;;;;;;1.83;1.60;;;;;;;;;;5064845;27;82904;-55
2022/10/12 09:30:54;;;;;;;2.43;1.57;;;;;;;;;;5065365;27;82973;-55
2022/10/12 09:33:23;;;;;;;1.80;1.70;;;;;;;;;;5065724;27;81958;-55
2022/10/12 09:35:52;;;;;;;3.07;1.90;;;;;;;;;;5065637;27;82441;-55
2022/10/12 09:38:23;;;;;;;4.07;2.27;;;;;;;;;;5065148;27;82922;-55
2022/10/12 09:40:51;;;;;;;4.07;2.03;;;;;;;;;;5065222;27;81815;-55
2022/10/12 09:43:19;;;;;;;4.37;2.07;;;;;;;;;;5064940;27;83014;-55
2022/10/12 09:45:48;;;;;;;3.20;1.80;;;;;;;;;;5065411;27;83523;-55
2022/10/12 09:48:17;;;;;;;5.10;2.23;;;;;;;;;;5065168;27;81904;-55
2022/10/12 09:50:46;;;;;;;5.23;1.93;;;;;;;;;;5065105;27;83871;-54
2022/10/12 09:53:16;;;;;;;4.37;1.70;;;;;;;;;;5063986;27;81769;-55
2022/10/12 09:55:53;;;;;;;3.10;2.20;;;;;;;;;;5064699;27;82315;-55
2022/10/12 09:58:21;;;;;;;2.67;1.97;;;;;;;;;;5064878;27;83004;-55
2022/10/12 10:01:04;;;;;;;2.93;1.70;;;;;;;;;;5065081;27;82566;-55
2022/10/12 10:03:33;;;;;;;3.70;1.80;;;;;;;;;;5064537;27;82004;-55
2022/10/12 10:06:03;;;;;;;3.33;1.53;;;;;;;;;;5064594;27;83943;-56
2022/10/12 10:08:33;;;;;;;2.80;1.47;;;;;;;;;;5064375;27;83835;-55
2022/10/12 10:11:04;;;;;;;2.57;1.60;;;;;;;;;;5064637;27;84716;-55
2022/10/12 10:13:32;;;;;;;4.10;1.60;;;;;;;;;;5065035;27;81935;-55
2022/10/12 10:16:04;;;;;;;3.60;1.43;;;;;;;;;;5064626;27;83889;-55
2022/10/12 10:18:34;;;;;;;2.53;1.23;;;;;;;;;;5064582;27;83857;-55
2022/10/12 10:21:02;;;;;;;2.47;1.53;;;;;;;;;;5064864;27;81673;-55
2022/10/12 10:23:31;;;;;;;5.07;1.50;;;;;;;;;;5064766;27;82020;-55
2022/10/12 10:26:03;;;;;;;3.73;1.37;;;;;;;;;;5064369;27;83848;-55
2022/10/12 10:28:33;;;;;;;2.23;1.47;;;;;;;;;;5064256;27;83873;-55
2022/10/12 10:31:02;;;;;;;3.00;1.70;;;;;;;;;;5064043;27;81880;-55
2022/10/12 10:33:31;;;;;;;2.27;1.60;;;;;;;;;;5063895;27;82859;-55
2022/10/12 10:36:04;;;;;;;1.80;1.60;;;;;;;;;;5064335;27;82879;-55
2022/10/12 10:38:33;;;;;;;1.63;1.50;;;;;;;;;;5064467;27;83710;-55
2022/10/12 10:41:03;;;;;;;2.30;1.87;;;;;;;;;;5064141;27;81883;-55
2022/10/12 10:43:33;;;;;;;1.53;1.30;;;;;;;;;;5064300;27;81832;-55
2022/10/12 10:46:01;;;;;;;2.37;1.80;;;;;;;;;;5064328;27;84170;-55
2022/10/12 10:48:30;;;;;;;1.67;1.27;;;;;;;;;;5063921;27;82826;-55
2022/10/12 10:51:00;;;;;;;4.37;1.47;;;;;;;;;;5064570;27;81582;-55
2022/10/12 10:53:28;;;;;;;4.07;1.90;;;;;;;;;;5064633;27;82879;-55
2022/10/12 10:55:58;;;;;;;2.93;1.63;;;;;;;;;;5064209;27;86012;-55
2022/10/12 10:58:28;;;;;;;5.50;1.57;;;;;;;;;;5063883;27;82784;-55
2022/10/12 11:00:58;;;;;;;2.83;1.73;;;;;;;;;;5063868;27;83693;-55
2022/10/12 11:03:28;;;;;;;2.67;1.87;;;;;;;;;;5064037;27;81856;-55
2022/10/12 11:05:58;;;;;;;2.37;1.70;;;;;;;;;;5066951;27;82708;-55
2022/10/12 11:08:27;;;;;;;5.13;1.77;;;;;;;;;;5067483;27;83443;-55
2022/10/12 11:10:56;;;;;;;3.53;1.60;;;;;;;;;;5067526;27;82539;-55
2022/10/12 11:13:26;;;;;;;1.73;1.30;;;;;;;;;;5067817;27;81979;-55
2022/10/12 11:15:55;;;;;;;3.00;2.00;;;;;;;;;;5067843;27;81746;-55
2022/10/12 11:18:26;;;;;;;2.40;1.73;;;;;;;;;;5067085;27;83217;-55
2022/10/12 11:20:55;;;;;;;2.87;1.53;;;;;;;;;;5067121;27;82976;-55
2022/10/12 11:23:29;;;;;;;2.17;1.63;;;;;;;;;;5066385;27;82872;-55
2022/10/12 11:26:06;;;;;;;3.40;1.73;;;;;;;;;;5066566;27;83422;-55
2022/10/12 11:28:34;;;;;;;7.53;2.13;;;;;;;;;;5066616;27;82946;-55
2022/10/12 11:31:03;;;;;;;1.60;1.50;;;;;;;;;;5066942;27;82565;-55
2022/10/12 11:33:37;;;;;;;4.40;1.60;;;;;;;;;;5066181;27;82001;-55
2022/10/12 11:36:06;;;;;;;3.17;2.10;;;;;;;;;;5064585;27;82839;-55
2022/10/12 11:38:36;;;;;;;3.07;1.60;;;;;;;;;;5066511;27;83837;-55
2022/10/12 11:41:06;;;;;;;1.90;1.50;;;;;;;;;;5066873;27;83746;-55
2022/10/12 11:43:56;;;;;;;2.83;1.63;;;;;;;;;;5065807;27;82704;-55
2022/10/12 11:46:34;;;;;;;3.10;2.10;;;;;;;;;;5066395;27;82766;-55
2022/10/12 11:49:08;;;;;;;2.87;1.67;;;;;;;;;;5063852;27;84820;-55
2022/10/12 11:51:37;;;;;;;3.40;2.10;;;;;;;;;;5066470;27;84907;-55
2022/10/12 11:54:06;;;;;;;4.87;1.77;;;;;;;;;;5065978;27;81786;-55
2022/10/12 11:56:35;;;;;;;2.47;1.90;;;;;;;;;;5066374;27;83180;-55
2022/10/12 11:59:05;;;;;;;5.23;2.10;;;;;;;;;;5066222;27;83077;-56
2022/10/12 12:01:37;;;;;;;10.83;1.87;;;;;;;;;;5065979;27;82760;-56
2022/10/12 12:04:09;;;;;;;4.23;2.20;;;;;;;;;;5066049;27;81784;-56
2022/10/12 12:07:01;;;;;;;3.20;2.40;;;;;;;;;;5063452;27;82446;-56
2022/10/12 12:09:38;;;;;;;3.53;1.83;;;;;;;;;;5066347;27;81880;-55
2022/10/12 12:12:15;;;;;;;2.80;2.07;;;;;;;;;;5064204;27;82728;-55
2022/10/12 12:14:47;;;;;;;2.93;2.07;;;;;;;;;;5063115;27;82959;-55
2022/10/12 12:17:21;;;;;;;2.53;1.73;;;;;;;;;;5065435;27;83301;-57
2022/10/12 12:19:51;;;;;;;4.23;2.00;;;;;;;;;;5065400;27;82783;-56
2022/10/12 12:22:29;;;;;;;4.87;2.43;;;;;;;;;;5063374;27;81847;-56
2022/10/12 12:25:03;;;;;;;4.03;2.47;;;;;;;;;;5063372;27;81935;-55
2022/10/12 12:27:33;;;;;;;2.97;2.20;;;;;;;;;;5065534;27;82838;-56
2022/10/12 12:30:01;;;;;;;3.37;1.83;;;;;;;;;;5062838;27;83167;-56
2022/10/12 12:32:41;;;;;;;4.97;2.00;;;;;;;;;;5065484;27;83706;-56
2022/10/12 12:35:18;;;;;;;4.57;2.63;;;;;;;;;;5063902;27;82078;-56
2022/10/12 12:37:46;;;;;;;3.23;1.70;;;;;;;;;;5063000;27;82811;-55
2022/10/12 12:40:20;;;;;;;4.60;1.97;;;;;;;;;;5063945;27;84351;-56
2022/10/12 12:42:48;;;;;;;2.97;1.97;;;;;;;;;;5064504;27;84753;-55
2022/10/12 12:45:34;;;;;;;1.67;1.43;;;;;;;;;;5064800;27;82079;-56
2022/10/12 12:48:02;;;;;;;3.20;2.03;;;;;;;;;;5063401;27;82844;-55
2022/10/12 12:50:34;;;;;;;4.73;2.40;;;;;;;;;;5064026;27;83666;-55
2022/10/12 12:53:03;;;;;;;3.83;1.90;;;;;;;;;;5064084;27;83986;-55
2022/10/12 12:55:38;;;;;;;3.50;2.10;;;;;;;;;;5064038;27;81933;-55
2022/10/12 12:58:09;;;;;;;3.37;2.47;;;;;;;;;;5061922;27;82671;-56
2022/10/12 13:00:38;;;;;;;5.73;2.30;;;;;;;;;;5063933;27;85612;-56
2022/10/12 13:03:17;;;;;;;3.83;1.87;;;;;;;;;;5061227;27;82996;-56
2022/10/12 13:06:05;;;;;;;5.10;2.37;;;;;;;;;;5063710;27;82911;-56
2022/10/12 13:08:36;;;;;;;2.90;2.37;;;;;;;;;;5062339;27;82557;-57
2022/10/12 13:11:14;;;;;;;2.73;2.13;;;;;;;;;;5064078;27;82954;-57
2022/10/12 13:13:50;;;;;;;3.70;1.77;;;;;;;;;;5062041;27;83944;-60
2022/10/12 13:16:22;;;;;;;2.67;1.90;;;;;;;;;;5065553;27;81784;-56
2022/10/12 13:19:11;;;;;;;3.67;2.00;;;;;;;;;;5065473;27;81875;-58
2022/10/12 13:21:40;;;;;;;3.53;2.53;;;;;;;;;;5065327;27;83808;-56
2022/10/12 13:24:21;;;;;;;3.53;2.20;;;;;;;;;;5066027;27;82413;-55
2022/10/12 13:26:49;;;;;;;3.33;2.27;;;;;;;;;;5065162;27;81941;-55
2022/10/12 13:29:20;;;;;;;3.47;2.17;;;;;;;;;;5050008;27;83827;-56
2022/10/12 13:31:48;;;;;;;4.27;2.27;;;;;;;;;;5043311;27;83927;-56
2022/10/12 13:34:17;;;;;;;3.83;1.80;;;;;;;;;;5043643;27;84792;-56
2022/10/12 13:36:47;;;;;;;2.70;2.00;;;;;;;;;;5045348;27;82079;-56
2022/10/12 13:39:17;;;;;;;2.43;1.70;;;;;;;;;;5045027;27;82953;-55
2022/10/12 13:41:46;;;;;;;3.77;2.57;;;;;;;;;;5042814;27;84099;-55
2022/10/12 13:44:19;;;;;;;4.83;2.40;;;;;;;;;;5044168;27;83565;-55
2022/10/12 13:46:49;;;;;;;3.97;2.17;;;;;;;;;;5044641;27;82422;-55
2022/10/12 13:49:18;;;;;;;4.20;2.40;;;;;;;;;;5044985;27;83761;-55
2022/10/12 13:51:47;;;;;;;4.73;2.43;;;;;;;;;;5061800;27;83853;-55
2022/10/12 13:54:21;;;;;;;5.20;2.50;;;;;;;;;;5065273;27;82591;-55
2022/10/12 13:56:49;;;;;;;4.10;2.43;;;;;;;;;;5064296;27;82834;-55
2022/10/12 13:59:19;;;;;;;4.90;1.87;;;;;;;;;;5064935;27;82497;-56
2022/10/12 14:01:48;;;;;;;7.07;2.70;;;;;;;;;;5064532;27;82805;-56
2022/10/12 14:04:16;;;;;;;2.53;2.07;;;;;;;;;;5064803;27;83763;-55
2022/10/12 14:06:47;;;;;;;5.90;2.17;;;;;;;;;;5064878;27;81914;-56
2022/10/12 14:09:15;;;;;;;3.53;1.93;;;;;;;;;;5064915;27;82934;-56
2022/10/12 14:11:45;;;;;;;4.10;2.60;;;;;;;;;;5064786;27;83886;-55
2022/10/12 14:14:18;;;;;;;4.70;2.37;;;;;;;;;;5065314;27;82850;-56
2022/10/12 14:16:48;;;;;;;2.93;2.20;;;;;;;;;;5064660;27;82073;-56
2022/10/12 14:19:20;;;;;;;4.17;2.23;;;;;;;;;;5064556;27;82711;-56
2022/10/12 14:21:48;;;;;;;4.63;2.47;;;;;;;;;;5062584;27;84024;-56
2022/10/12 14:24:17;;;;;;;3.43;2.37;;;;;;;;;;5062413;27;83641;-56
2022/10/12 14:26:52;;;;;;;3.67;2.03;;;;;;;;;;5064681;27;81909;-56
2022/10/12 14:29:33;;;;;;;3.50;2.23;;;;;;;;;;5064059;27;83747;-56
2022/10/12 14:32:01;;;;;;;2.10;1.90;;;;;;;;;;5064232;27;81923;-55
2022/10/12 14:34:48;;;;;;;6.20;2.70;;;;;;;;;;5064275;27;83540;-55
2022/10/12 14:37:37;;;;;;;2.47;1.57;;;;;;;;;;5064488;27;81933;-55
2022/10/12 14:40:20;;;;;;;1.77;1.60;;;;;;;;;;5061579;27;82585;-56
2022/10/12 14:42:55;;;;;;;2.43;1.73;;;;;;;;;;5064452;27;82874;-57
2022/10/12 14:45:24;;;;;;;4.43;2.37;;;;;;;;;;5064302;27;82563;-56
2022/10/12 14:47:52;;;;;;;4.57;1.97;;;;;;;;;;5063210;27;82815;-56
2022/10/12 14:50:21;;;;;;;4.63;2.40;;;;;;;;;;5063366;27;83739;-55
2022/10/12 14:52:50;;;;;;;3.07;2.23;;;;;;;;;;5064204;27;83024;-55
2022/10/12 14:55:19;;;;;;;2.80;1.93;;;;;;;;;;5063369;27;82371;-55
2022/10/12 14:57:47;;;;;;;4.37;2.60;;;;;;;;;;5063082;27;82226;-55